createdAt,value
2022-10-12T00:00:03.396Z,5.39
2022-10-12T00:01:03.392Z,5.47
2022-10-12T00:02:03.397Z,5.50
2022-10-12T00:03:03.366Z,5.59
2022-10-12T00:04:03.354Z,5.43
2022-10-12T00:05:03.344Z,5.47
2022-10-12T00:06:03.334Z,5.44
2022-10-12T00:07:03.332Z,5.41
2022-10-12T00:08:03.313Z,5.48
2022-10-12T00:09:03.301Z,5.59
2022-10-12T00:10:03.294Z,5.56
2022-10-12T00:11:03.286Z,5.43
2022-10-12T00:12:03.271Z,5.47
2022-10-12T00:13:03.269Z,5.44
2022-10-12T00:14:03.253Z,5.47
2022-10-12T00:15:03.241Z,5.43
2022-10-12T00:16:03.233Z,5.47
2022-10-12T00:17:03.223Z,5.43
2022-10-12T00:18:03.211Z,5.39
2022-10-12T00:19:03.199Z,5.44
2022-10-12T00:20:03.191Z,5.47
2022-10-12T00:21:03.180Z,5.38
2022-10-12T00:22:03.169Z,5.36
2022-10-12T00:23:03.158Z,5.35
2022-10-12T00:24:03.147Z,5.25
2022-10-12T00:25:03.138Z,5.18
2022-10-12T00:26:03.133Z,5.17
2022-10-12T00:27:03.115Z,5.10
2022-10-12T00:28:03.103Z,5.25
2022-10-12T00:29:03.099Z,5.08
2022-10-12T00:30:03.087Z,5.08
2022-10-12T00:31:03.075Z,5.08
2022-10-12T00:32:03.068Z,5.08
2022-10-12T00:33:03.053Z,5.04
2022-10-12T00:34:03.043Z,5.05
2022-10-12T00:35:03.039Z,5.04
2022-10-12T00:36:03.022Z,4.97
2022-10-12T00:37:03.012Z,4.96
2022-10-12T00:38:03.006Z,5.04
2022-10-12T00:39:02.996Z,4.97
2022-10-12T00:40:02.977Z,4.97
2022-10-12T00:41:02.978Z,4.96
2022-10-12T00:42:02.966Z,4.94
2022-10-12T00:43:02.951Z,5.05
2022-10-12T00:44:02.946Z,4.94
2022-10-12T00:45:02.935Z,4.96
2022-10-12T00:46:02.921Z,4.99
2022-10-12T00:47:02.911Z,5.07
2022-10-12T00:48:02.903Z,4.97
2022-10-12T00:49:02.887Z,4.94
2022-10-12T00:50:02.874Z,4.94
2022-10-12T00:51:02.927Z,4.96
2022-10-12T00:52:02.854Z,4.96
2022-10-12T00:53:02.846Z,4.90
2022-10-12T00:54:02.840Z,4.94
2022-10-12T00:55:02.822Z,4.97
2022-10-12T00:56:02.873Z,4.89
2022-10-12T00:57:02.806Z,4.96
2022-10-12T00:58:02.796Z,4.97
2022-10-12T00:59:02.783Z,4.82
2022-10-12T01:00:02.783Z,4.77
2022-10-12T01:01:02.817Z,4.93
2022-10-12T01:02:02.751Z,4.84
2022-10-12T01:03:02.764Z,4.87
2022-10-12T01:04:02.737Z,4.87
2022-10-12T01:05:02.719Z,4.78
2022-10-12T01:06:02.709Z,4.78
2022-10-12T01:07:02.696Z,4.75
2022-10-12T01:08:02.683Z,4.73
2022-10-12T01:09:02.673Z,4.74
2022-10-12T01:10:02.670Z,4.86
2022-10-12T01:11:02.656Z,4.73
2022-10-12T01:12:02.643Z,4.75
2022-10-12T01:13:02.635Z,4.80
2022-10-12T01:14:02.619Z,4.68
2022-10-12T01:15:02.614Z,4.70
2022-10-12T01:16:02.616Z,4.75
2022-10-12T01:17:02.591Z,4.80
2022-10-12T01:18:02.586Z,4.73
2022-10-12T01:19:02.575Z,4.71
2022-10-12T01:20:02.555Z,4.68
2022-10-12T01:21:02.546Z,4.71
2022-10-12T01:22:02.538Z,4.71
2022-10-12T01:23:02.535Z,4.70
2022-10-12T01:24:02.517Z,4.71
2022-10-12T01:25:02.515Z,4.68
2022-10-12T01:26:02.495Z,4.66
2022-10-12T01:27:02.484Z,4.67
2022-10-12T01:28:02.478Z,4.62
2022-10-12T01:29:02.474Z,4.62
2022-10-12T01:30:02.455Z,4.63
2022-10-12T01:31:02.448Z,4.70
2022-10-12T01:32:02.435Z,4.63
2022-10-12T01:33:02.425Z,4.67
2022-10-12T01:34:02.411Z,4.62
2022-10-12T01:35:02.412Z,4.66
2022-10-12T01:36:02.393Z,4.59
2022-10-12T01:37:02.380Z,4.58
2022-10-12T01:38:02.371Z,4.60
2022-10-12T01:39:02.365Z,4.68
2022-10-12T01:40:02.351Z,4.59
2022-10-12T01:41:02.339Z,4.58
2022-10-12T01:42:02.328Z,4.56
2022-10-12T01:43:02.318Z,4.55
2022-10-12T01:44:02.312Z,4.49
2022-10-12T01:45:02.303Z,4.50
2022-10-12T01:46:02.286Z,4.45
2022-10-12T01:47:02.278Z,4.49
2022-10-12T01:48:02.268Z,4.50
2022-10-12T01:49:02.253Z,4.50
2022-10-12T01:50:02.244Z,4.59
2022-10-12T01:51:02.248Z,4.59
2022-10-12T01:52:02.223Z,4.53
2022-10-12T01:53:02.214Z,4.60
2022-10-12T01:54:02.209Z,4.56
2022-10-12T01:55:02.192Z,4.52
2022-10-12T01:56:02.178Z,4.52
2022-10-12T01:57:02.171Z,4.53
2022-10-12T01:58:02.162Z,4.53
2022-10-12T01:59:02.152Z,4.49
2022-10-12T02:00:02.139Z,4.53
2022-10-12T02:01:02.179Z,4.53
2022-10-12T02:02:02.126Z,4.49
2022-10-12T02:03:02.112Z,4.50
2022-10-12T02:04:02.108Z,4.53
2022-10-12T02:05:02.087Z,4.50
2022-10-12T02:06:02.076Z,4.45
2022-10-12T02:07:02.066Z,4.38
2022-10-12T02:08:02.057Z,4.48
2022-10-12T02:09:02.046Z,4.42
2022-10-12T02:10:02.042Z,4.40
2022-10-12T02:11:02.026Z,4.48
2022-10-12T02:12:02.030Z,4.49
2022-10-12T02:13:02.003Z,4.48
2022-10-12T02:14:01.992Z,4.42
2022-10-12T02:15:01.979Z,4.49
2022-10-12T02:16:01.970Z,4.38
2022-10-12T02:17:01.962Z,4.45
2022-10-12T02:18:01.949Z,4.45
2022-10-12T02:19:01.940Z,4.44
2022-10-12T02:20:01.940Z,4.37
2022-10-12T02:21:01.918Z,4.48
2022-10-12T02:22:01.908Z,4.44
2022-10-12T02:23:01.897Z,4.40
2022-10-12T02:24:01.883Z,4.42
2022-10-12T02:25:01.871Z,4.42
2022-10-12T02:26:01.874Z,4.45
2022-10-12T02:27:01.853Z,4.38
2022-10-12T02:28:01.843Z,4.38
2022-10-12T02:29:01.839Z,4.45
2022-10-12T02:30:01.820Z,4.44
2022-10-12T02:31:01.807Z,4.37
2022-10-12T02:32:01.808Z,4.32
2022-10-12T02:33:01.796Z,4.35
2022-10-12T02:34:01.781Z,4.28
2022-10-12T02:35:01.769Z,4.37
2022-10-12T02:36:01.760Z,4.30
2022-10-12T02:37:01.750Z,4.28
2022-10-12T02:38:01.893Z,4.35
2022-10-12T02:39:01.731Z,4.34
2022-10-12T02:40:01.716Z,4.31
2022-10-12T02:41:01.702Z,4.32
2022-10-12T02:42:01.696Z,4.32
2022-10-12T02:43:10.873Z,4.34
2022-10-12T02:44:01.674Z,4.35
2022-10-12T02:45:01.661Z,4.28
2022-10-12T02:46:01.651Z,4.26
2022-10-12T02:47:01.636Z,4.35
2022-10-12T02:48:01.627Z,4.22
2022-10-12T02:49:01.625Z,4.28
2022-10-12T02:50:01.609Z,4.30
2022-10-12T02:51:01.599Z,4.30
2022-10-12T02:52:01.592Z,4.34
2022-10-12T02:53:01.574Z,4.31
2022-10-12T02:54:01.562Z,4.31
2022-10-12T02:55:01.564Z,4.28
2022-10-12T02:56:01.543Z,4.31
2022-10-12T02:57:01.534Z,4.30
2022-10-12T02:58:01.521Z,4.31
2022-10-12T02:59:01.509Z,4.30
2022-10-12T03:00:01.504Z,4.31
2022-10-12T03:01:01.579Z,4.34
2022-10-12T03:02:01.485Z,4.30
2022-10-12T03:03:01.470Z,4.35
2022-10-12T03:04:01.453Z,4.31
2022-10-12T03:05:01.444Z,4.23
2022-10-12T03:06:01.437Z,4.19
2022-10-12T03:07:01.428Z,4.24
2022-10-12T03:08:01.414Z,4.32
2022-10-12T03:09:01.405Z,4.30
2022-10-12T03:10:01.394Z,4.28
2022-10-12T03:11:01.383Z,4.32
2022-10-12T03:12:01.377Z,4.26
2022-10-12T03:13:01.361Z,4.24
2022-10-12T03:14:01.349Z,4.22
2022-10-12T03:15:01.342Z,4.22
2022-10-12T03:16:01.326Z,4.16
2022-10-12T03:17:01.316Z,4.20
2022-10-12T03:18:01.316Z,4.17
2022-10-12T03:19:01.302Z,4.12
2022-10-12T03:20:01.285Z,4.12
2022-10-12T03:21:01.285Z,4.17
2022-10-12T03:22:01.262Z,4.16
2022-10-12T03:23:01.250Z,4.13
2022-10-12T03:24:01.240Z,4.04
2022-10-12T03:25:01.237Z,4.01
2022-10-12T03:26:01.218Z,4.12
2022-10-12T03:27:01.206Z,4.08
2022-10-12T03:28:01.196Z,4.02
2022-10-12T03:29:01.190Z,4.04
2022-10-12T03:30:01.177Z,4.04
2022-10-12T03:31:01.165Z,4.04
2022-10-12T03:32:01.158Z,3.99
2022-10-12T03:33:01.140Z,3.99
2022-10-12T03:34:01.131Z,3.99
2022-10-12T03:35:01.131Z,3.98
2022-10-12T03:36:01.108Z,4.01
2022-10-12T03:37:01.100Z,3.99
2022-10-12T03:38:01.096Z,4.01
2022-10-12T03:39:01.082Z,4.06
2022-10-12T03:40:01.065Z,4.06
2022-10-12T03:41:06.420Z,4.01
2022-10-12T03:42:01.045Z,4.04
2022-10-12T03:43:01.045Z,4.06
2022-10-12T03:44:01.019Z,4.01
2022-10-12T03:45:01.008Z,4.06
2022-10-12T03:46:01.009Z,4.10
2022-10-12T03:47:00.991Z,4.05
2022-10-12T03:48:04.619Z,3.99
2022-10-12T03:49:00.970Z,4.05
2022-10-12T03:50:00.952Z,4.01
2022-10-12T03:51:00.946Z,4.01
2022-10-12T03:52:00.939Z,4.01
2022-10-12T03:53:00.923Z,4.04
2022-10-12T03:54:00.911Z,3.95
2022-10-12T03:55:00.905Z,3.99
2022-10-12T03:56:00.888Z,3.98
2022-10-12T03:57:00.880Z,3.94
2022-10-12T03:58:00.869Z,3.99
2022-10-12T03:59:00.863Z,3.95
2022-10-12T04:00:00.845Z,3.96
2022-10-12T04:01:00.889Z,3.94
2022-10-12T04:02:00.825Z,3.92
2022-10-12T04:03:00.815Z,3.92
2022-10-12T04:04:00.825Z,3.91
2022-10-12T04:05:00.795Z,3.95
2022-10-12T04:06:00.779Z,3.92
2022-10-12T04:07:00.769Z,3.95
2022-10-12T04:08:00.760Z,3.94
2022-10-12T04:09:00.752Z,3.84
2022-10-12T04:10:00.737Z,3.94
2022-10-12T04:11:00.734Z,3.96
2022-10-12T04:12:00.719Z,3.94
2022-10-12T04:13:00.701Z,3.86
2022-10-12T04:14:00.686Z,3.92
2022-10-12T04:15:00.680Z,3.86
2022-10-12T04:16:00.672Z,3.86
2022-10-12T04:17:00.658Z,3.95
2022-10-12T04:18:00.647Z,3.94
2022-10-12T04:19:00.635Z,3.87
2022-10-12T04:20:00.622Z,3.86
2022-10-12T04:21:00.626Z,3.88
2022-10-12T04:22:00.604Z,3.88
2022-10-12T04:23:00.592Z,3.94
2022-10-12T04:24:00.576Z,3.84
2022-10-12T04:25:00.573Z,3.78
2022-10-12T04:26:00.569Z,3.77
2022-10-12T04:27:00.549Z,3.84
2022-10-12T04:28:00.538Z,3.84
2022-10-12T04:29:00.533Z,3.86
2022-10-12T04:30:00.513Z,3.86
2022-10-12T04:31:00.504Z,3.78
2022-10-12T04:32:00.490Z,3.84
2022-10-12T04:33:00.484Z,3.80
2022-10-12T04:34:00.472Z,3.74
2022-10-12T04:35:00.471Z,3.81
2022-10-12T04:36:00.448Z,3.78
2022-10-12T04:37:00.436Z,3.77
2022-10-12T04:38:00.425Z,3.73
2022-10-12T04:39:01.339Z,3.69
2022-10-12T04:40:00.403Z,3.80
2022-10-12T04:41:00.399Z,3.78
2022-10-12T04:42:00.389Z,3.77
2022-10-12T04:43:00.385Z,3.76
2022-10-12T04:44:00.377Z,3.73
2022-10-12T04:45:00.349Z,3.69
2022-10-12T04:46:00.351Z,3.65
2022-10-12T04:47:00.326Z,3.68
2022-10-12T04:48:00.312Z,3.65
2022-10-12T04:49:00.302Z,3.59
2022-10-12T04:50:00.307Z,3.56
2022-10-12T04:51:00.285Z,3.60
2022-10-12T04:52:00.281Z,3.51
2022-10-12T04:53:00.257Z,3.42
2022-10-12T04:54:00.264Z,3.58
2022-10-12T04:55:00.235Z,3.44
2022-10-12T04:56:00.225Z,3.48
2022-10-12T04:57:00.219Z,3.50
2022-10-12T04:58:00.210Z,3.47
2022-10-12T04:59:00.241Z,3.50
2022-10-12T05:00:00.177Z,3.50
2022-10-12T05:01:00.172Z,3.60
2022-10-12T05:02:00.236Z,3.42
2022-10-12T05:03:00.153Z,3.47
2022-10-12T05:04:00.132Z,3.51
2022-10-12T05:05:00.186Z,3.44
2022-10-12T05:06:00.107Z,3.50
2022-10-12T05:07:00.109Z,3.55
2022-10-12T05:08:00.088Z,3.50
2022-10-12T05:09:00.086Z,3.50
2022-10-12T05:10:00.074Z,3.50
2022-10-12T05:11:00.065Z,3.55
2022-10-12T05:12:00.042Z,3.48
2022-10-12T05:13:00.032Z,3.44
2022-10-12T05:14:00.027Z,3.44
2022-10-12T05:15:00.009Z,3.45
2022-10-12T05:15:59.996Z,3.45
2022-10-12T05:16:59.986Z,3.37
2022-10-12T05:17:59.981Z,3.44
2022-10-12T05:18:59.966Z,3.47
2022-10-12T05:19:59.949Z,3.45
2022-10-12T05:20:59.941Z,3.44
2022-10-12T05:21:59.935Z,3.31
2022-10-12T05:22:59.922Z,3.36
2022-10-12T05:23:59.906Z,3.36
2022-10-12T05:24:59.898Z,3.36
2022-10-12T05:25:59.883Z,3.34
2022-10-12T05:26:59.871Z,3.29
2022-10-12T05:27:59.870Z,3.31
2022-10-12T05:28:59.885Z,3.40
2022-10-12T05:29:59.842Z,3.31
2022-10-12T05:30:59.835Z,3.31
2022-10-12T05:31:59.817Z,3.32
2022-10-12T05:32:59.808Z,3.25
2022-10-12T05:33:59.794Z,3.37
2022-10-12T05:34:59.784Z,3.36
2022-10-12T05:35:59.772Z,3.26
2022-10-12T05:36:59.757Z,3.36
2022-10-12T05:37:59.747Z,3.37
2022-10-12T05:38:59.750Z,3.45
2022-10-12T05:39:59.724Z,3.37
2022-10-12T05:41:00.921Z,3.34
2022-10-12T05:42:06.867Z,3.44
2022-10-12T05:43:52.811Z,3.45
2022-10-12T05:44:52.781Z,3.48
2022-10-12T05:46:45.877Z,3.53
2022-10-12T05:47:45.860Z,3.42
2022-10-12T05:49:49.831Z,3.50
2022-10-12T05:50:49.807Z,3.45
2022-10-12T05:52:42.932Z,3.59
2022-10-12T05:53:42.899Z,3.63
2022-10-12T05:54:42.891Z,3.58
2022-10-12T05:55:42.880Z,3.68
2022-10-12T05:56:42.869Z,3.60
2022-10-12T05:57:42.855Z,3.74
2022-10-12T05:58:42.845Z,3.73
2022-10-12T05:59:42.834Z,3.70
2022-10-12T06:00:42.842Z,3.77
2022-10-12T06:01:42.824Z,3.80
2022-10-12T06:02:42.806Z,3.83
2022-10-12T06:03:42.788Z,3.80
2022-10-12T06:04:42.773Z,3.70
2022-10-12T06:05:42.765Z,3.84
2022-10-12T06:06:42.754Z,3.77
2022-10-12T06:07:42.743Z,3.88
2022-10-12T06:08:42.746Z,3.94
2022-10-12T06:09:42.723Z,3.95
2022-10-12T06:10:45.992Z,3.98
2022-10-12T06:11:42.694Z,3.96
2022-10-12T06:12:42.686Z,4.05
2022-10-12T06:13:42.673Z,4.05
2022-10-12T06:14:42.664Z,4.05
2022-10-12T06:15:42.652Z,4.10
2022-10-12T06:16:42.641Z,4.14
2022-10-12T06:17:42.629Z,4.13
2022-10-12T06:18:42.619Z,4.23
2022-10-12T06:19:42.606Z,4.17
2022-10-12T06:20:42.604Z,4.30
2022-10-12T06:21:42.763Z,4.32
2022-10-12T06:22:42.574Z,4.35
2022-10-12T06:23:42.562Z,4.34
2022-10-12T06:24:42.552Z,4.34
2022-10-12T06:25:42.538Z,4.38
2022-10-12T06:26:42.531Z,4.53
2022-10-12T06:27:42.516Z,4.49
2022-10-12T06:28:42.533Z,4.66
2022-10-12T06:29:42.496Z,4.60
2022-10-12T06:30:42.492Z,4.67
2022-10-12T06:31:42.480Z,4.68
2022-10-12T06:32:42.462Z,4.70
2022-10-12T06:33:42.450Z,4.75
2022-10-12T06:34:42.442Z,4.75
2022-10-12T06:35:42.429Z,4.80
2022-10-12T06:36:42.420Z,4.78
2022-10-12T06:37:49.983Z,4.94
2022-10-12T06:38:42.394Z,4.93
2022-10-12T06:39:42.378Z,4.92
2022-10-12T06:40:42.371Z,4.92
2022-10-12T06:41:42.362Z,4.96
2022-10-12T06:42:42.353Z,4.94
2022-10-12T06:43:42.340Z,5.05
2022-10-12T06:44:42.329Z,5.12
2022-10-12T06:45:42.317Z,5.14
2022-10-12T06:46:42.305Z,5.14
2022-10-12T06:47:42.292Z,5.14
2022-10-12T06:48:42.282Z,5.23
2022-10-12T06:49:42.268Z,5.25
2022-10-12T06:50:42.287Z,5.25
2022-10-12T06:51:42.248Z,5.32
2022-10-12T06:52:42.266Z,5.30
2022-10-12T06:53:42.226Z,5.38
2022-10-12T06:54:42.218Z,5.44
2022-10-12T06:55:42.205Z,5.43
2022-10-12T06:56:42.196Z,5.44
2022-10-12T06:57:42.182Z,5.56
2022-10-12T06:58:42.172Z,5.61
2022-10-12T06:59:42.161Z,5.62
2022-10-12T07:00:42.153Z,5.57
2022-10-12T07:01:42.172Z,5.68
2022-10-12T07:02:42.134Z,5.69
2022-10-12T07:03:42.118Z,5.76
2022-10-12T07:04:42.109Z,5.76
2022-10-12T07:05:42.095Z,5.89
2022-10-12T07:06:42.084Z,5.90
2022-10-12T07:07:42.074Z,5.91
2022-10-12T07:08:42.074Z,5.91
2022-10-12T07:09:42.054Z,6.01
2022-10-12T07:10:42.045Z,5.99
2022-10-12T07:11:42.030Z,5.99
2022-10-12T07:12:42.020Z,6.19
2022-10-12T07:13:42.010Z,6.24
2022-10-12T07:14:41.998Z,6.20
2022-10-12T07:15:42.075Z,6.30
2022-10-12T07:16:41.979Z,6.35
2022-10-12T07:17:41.981Z,6.33
2022-10-12T07:18:41.964Z,6.36
2022-10-12T07:19:41.950Z,6.48
2022-10-12T07:20:41.939Z,6.57
2022-10-12T07:21:41.927Z,6.57
2022-10-12T07:22:41.919Z,6.63
2022-10-12T07:23:45.823Z,6.74
2022-10-12T07:24:41.894Z,6.72
2022-10-12T07:25:41.958Z,6.82
2022-10-12T07:26:41.869Z,6.84
2022-10-12T07:27:42.119Z,6.97
2022-10-12T07:28:41.884Z,6.95
2022-10-12T07:29:41.841Z,6.99
2022-10-12T07:30:41.833Z,7.02
2022-10-12T07:31:41.823Z,7.18
2022-10-12T07:32:41.812Z,7.31
2022-10-12T07:33:41.808Z,7.33
2022-10-12T07:34:41.789Z,7.45
2022-10-12T07:36:10.215Z,7.43
2022-10-12T07:36:58.590Z,7.45
2022-10-12T07:37:42.148Z,7.57
2022-10-12T07:38:41.751Z,7.67
2022-10-12T07:39:41.740Z,7.70
2022-10-12T07:40:41.740Z,7.72
2022-10-12T07:41:41.718Z,7.80
2022-10-12T07:43:05.193Z,7.77
2022-10-12T07:43:41.703Z,7.85
2022-10-12T07:44:41.687Z,7.98
2022-10-12T07:45:41.680Z,8.05
2022-10-12T07:46:41.668Z,8.16
2022-10-12T07:47:41.797Z,8.34
2022-10-12T07:48:45.702Z,8.42
2022-10-12T07:49:41.640Z,8.52
2022-10-12T07:50:41.630Z,8.64
2022-10-12T07:51:41.625Z,8.74
2022-10-12T07:52:41.610Z,8.88
2022-10-12T07:53:41.602Z,8.91
2022-10-12T07:54:41.592Z,8.94
2022-10-12T07:55:41.581Z,9.00
2022-10-12T07:56:41.571Z,9.08
2022-10-12T07:57:41.763Z,9.11
2022-10-12T07:58:41.617Z,9.06
2022-10-12T07:59:41.543Z,9.21
2022-10-12T08:00:41.532Z,9.29
2022-10-12T08:01:41.588Z,9.32
2022-10-12T08:02:41.515Z,9.39
2022-10-12T08:03:41.576Z,9.46
2022-10-12T08:04:41.493Z,9.50
2022-10-12T08:05:41.485Z,9.55
2022-10-12T08:06:41.480Z,9.62
2022-10-12T08:07:41.748Z,9.59
2022-10-12T08:08:41.457Z,9.66
2022-10-12T08:09:41.450Z,9.72
2022-10-12T08:10:41.440Z,9.74
2022-10-12T08:11:41.429Z,9.86
2022-10-12T08:12:41.421Z,9.72
2022-10-12T08:13:41.415Z,9.84
2022-10-12T08:14:41.401Z,9.94
2022-10-12T08:15:41.395Z,9.83
2022-10-12T08:16:41.390Z,9.98
2022-10-12T08:17:41.590Z,9.97
2022-10-12T08:18:41.366Z,9.98
2022-10-12T08:19:41.359Z,9.95
2022-10-12T08:20:41.348Z,10.04
2022-10-12T08:21:41.340Z,10.07
2022-10-12T08:22:41.330Z,10.09
2022-10-12T08:23:41.322Z,10.16
2022-10-12T08:24:41.313Z,10.28
2022-10-12T08:25:41.305Z,10.40
2022-10-12T08:26:41.296Z,10.30
2022-10-12T08:27:41.666Z,10.38
2022-10-12T08:28:41.336Z,10.46
2022-10-12T08:29:41.268Z,10.44
2022-10-12T08:30:41.392Z,10.61
2022-10-12T08:31:41.252Z,10.72
2022-10-12T08:32:41.241Z,10.76
2022-10-12T08:33:41.242Z,10.72
2022-10-12T08:34:41.233Z,10.75
2022-10-12T08:35:41.215Z,10.79
2022-10-12T08:36:41.206Z,10.84
2022-10-12T08:37:41.540Z,10.82
2022-10-12T08:38:41.193Z,10.82
2022-10-12T08:39:41.184Z,10.93
2022-10-12T08:40:41.172Z,11.05
2022-10-12T08:41:41.169Z,11.05
2022-10-12T08:42:41.158Z,11.18
2022-10-12T08:43:41.148Z,11.30
2022-10-12T08:44:41.137Z,11.35
2022-10-12T08:45:41.129Z,11.41
2022-10-12T08:46:41.118Z,11.37
2022-10-12T08:47:41.748Z,11.41
2022-10-12T08:48:41.108Z,11.52
2022-10-12T08:49:41.096Z,11.54
2022-10-12T08:50:41.087Z,11.60
2022-10-12T08:51:41.078Z,11.68
2022-10-12T08:52:41.371Z,11.62
2022-10-12T08:53:41.062Z,11.75
2022-10-12T08:54:41.052Z,11.84
2022-10-12T08:55:41.047Z,11.75
2022-10-12T08:56:41.036Z,11.78
2022-10-12T08:57:41.142Z,11.70
2022-10-12T08:58:41.022Z,11.70
2022-10-12T08:59:41.015Z,11.78
2022-10-12T09:00:41.006Z,11.70
2022-10-12T09:01:41.019Z,11.80
2022-10-12T09:02:41.182Z,11.72
2022-10-12T09:03:40.982Z,11.77
2022-10-12T09:04:40.971Z,11.77
2022-10-12T09:05:40.970Z,11.90
2022-10-12T09:06:40.958Z,11.87
2022-10-12T09:07:40.947Z,11.87
2022-10-12T09:08:40.937Z,12.00
2022-10-12T09:09:43.250Z,12.02
2022-10-12T09:10:40.923Z,12.04
2022-10-12T09:11:40.917Z,12.24
2022-10-12T09:12:41.333Z,12.40
2022-10-12T09:13:40.899Z,12.37
2022-10-12T09:14:40.889Z,12.45
2022-10-12T09:15:40.884Z,12.39
2022-10-12T09:16:40.878Z,12.45
2022-10-12T09:17:40.868Z,12.36
2022-10-12T09:18:41.445Z,12.43
2022-10-12T09:19:40.855Z,12.40
2022-10-12T09:20:40.843Z,12.53
2022-10-12T09:21:40.836Z,12.40
2022-10-12T09:22:41.424Z,12.47
2022-10-12T09:23:40.825Z,12.45
2022-10-12T09:24:40.810Z,12.57
2022-10-12T09:25:40.806Z,12.45
2022-10-12T09:26:40.800Z,12.55
2022-10-12T09:27:45.117Z,12.60
2022-10-12T09:28:40.855Z,12.78
2022-10-12T09:29:40.775Z,12.73
2022-10-12T09:30:40.769Z,12.80
2022-10-12T09:31:40.759Z,12.86
2022-10-12T09:32:40.757Z,12.87
2022-10-12T09:33:40.744Z,12.90
2022-10-12T09:34:40.741Z,12.91
2022-10-12T09:35:40.729Z,13.01
2022-10-12T09:36:40.734Z,13.00
2022-10-12T09:37:40.715Z,13.00
2022-10-12T09:38:40.708Z,13.08
2022-10-12T09:39:40.705Z,13.05
2022-10-12T09:40:40.695Z,13.16
2022-10-12T09:41:40.681Z,13.18
2022-10-12T09:42:40.681Z,13.23
2022-10-12T09:43:40.671Z,13.27
2022-10-12T09:44:40.663Z,13.20
2022-10-12T09:45:40.799Z,13.35
2022-10-12T09:46:40.652Z,13.31
2022-10-12T09:47:40.642Z,13.46
2022-10-12T09:48:44.508Z,13.42
2022-10-12T09:49:40.629Z,13.42
2022-10-12T09:50:40.618Z,13.41
2022-10-12T09:51:40.612Z,13.42
2022-10-12T09:52:40.605Z,13.49
2022-10-12T09:53:40.598Z,13.49
2022-10-12T09:54:40.641Z,13.54
2022-10-12T09:55:40.587Z,13.59
2022-10-12T09:56:40.583Z,13.63
2022-10-12T09:57:40.570Z,13.62
2022-10-12T09:58:40.558Z,13.68
2022-10-12T09:59:40.554Z,13.63
2022-10-12T10:00:40.549Z,13.67
2022-10-12T10:01:40.567Z,13.71
2022-10-12T10:02:40.532Z,13.65
2022-10-12T10:03:40.527Z,13.74
2022-10-12T10:04:40.522Z,13.72
2022-10-12T10:05:40.520Z,13.72
2022-10-12T10:06:40.513Z,13.70
2022-10-12T10:07:40.500Z,13.62
2022-10-12T10:08:40.491Z,13.67
2022-10-12T10:09:40.483Z,13.62
2022-10-12T10:10:40.479Z,13.72
2022-10-12T10:11:40.473Z,13.74
2022-10-12T10:12:40.465Z,13.81
2022-10-12T10:13:40.456Z,13.95
2022-10-12T10:14:40.453Z,13.87
2022-10-12T10:15:40.443Z,13.89
2022-10-12T10:16:40.434Z,13.90
2022-10-12T10:17:40.430Z,13.96
2022-10-12T10:18:40.424Z,13.93
2022-10-12T10:19:40.414Z,13.96
2022-10-12T10:20:40.412Z,13.95
2022-10-12T10:21:40.400Z,14.00
2022-10-12T10:22:40.395Z,14.04
2022-10-12T10:23:40.389Z,13.99
2022-10-12T10:24:40.381Z,13.99
2022-10-12T10:25:40.375Z,14.05
2022-10-12T10:26:40.370Z,13.99
2022-10-12T10:27:40.364Z,14.12
2022-10-12T10:28:40.422Z,14.15
2022-10-12T10:29:40.349Z,14.22
2022-10-12T10:30:41.451Z,14.26
2022-10-12T10:31:40.332Z,14.22
2022-10-12T10:32:40.328Z,14.29
2022-10-12T10:33:40.323Z,14.20
2022-10-12T10:34:40.316Z,14.26
2022-10-12T10:35:40.311Z,14.30
2022-10-12T10:36:40.300Z,14.23
2022-10-12T10:37:40.295Z,14.32
2022-10-12T10:38:40.289Z,14.37
2022-10-12T10:39:40.282Z,14.45
2022-10-12T10:40:40.275Z,14.48
2022-10-12T10:41:40.271Z,14.45
2022-10-12T10:42:40.259Z,14.44
2022-10-12T10:43:40.261Z,14.51
2022-10-12T10:45:40.250Z,14.55
2022-10-12T10:46:40.239Z,14.54
2022-10-12T10:47:40.231Z,14.53
2022-10-12T10:48:40.225Z,14.58
2022-10-12T10:49:41.532Z,14.54
2022-10-12T10:50:40.211Z,14.53
2022-10-12T10:51:40.206Z,14.54
2022-10-12T10:52:40.198Z,14.54
2022-10-12T10:53:40.189Z,14.69
2022-10-12T10:54:40.186Z,14.68
2022-10-12T10:55:40.178Z,14.78
2022-10-12T10:56:40.171Z,14.77
2022-10-12T10:57:40.166Z,14.91
2022-10-12T10:58:40.160Z,14.84
2022-10-12T10:59:40.152Z,14.88
2022-10-12T11:00:41.151Z,14.89
2022-10-12T11:01:40.227Z,14.89
2022-10-12T11:02:40.148Z,14.91
2022-10-12T11:03:40.131Z,14.88
2022-10-12T11:04:40.121Z,14.94
2022-10-12T11:05:40.129Z,15.02
2022-10-12T11:06:40.108Z,14.94
2022-10-12T11:07:40.101Z,15.02
2022-10-12T11:08:40.093Z,14.99
2022-10-12T11:09:40.098Z,15.10
2022-10-12T11:10:40.083Z,15.18
2022-10-12T11:11:40.079Z,15.21
2022-10-12T11:12:40.078Z,15.24
2022-10-12T11:13:40.068Z,15.40
2022-10-12T11:14:40.060Z,15.40
2022-10-12T11:15:40.054Z,15.49
2022-10-12T11:16:40.047Z,15.47
2022-10-12T11:17:40.043Z,15.54
2022-10-12T11:18:40.036Z,15.51
2022-10-12T11:19:40.035Z,15.54
2022-10-12T11:20:40.020Z,15.54
2022-10-12T11:21:40.020Z,15.47
2022-10-12T11:22:40.011Z,15.52
2022-10-12T11:23:40.010Z,15.54
2022-10-12T11:24:39.997Z,15.57
2022-10-12T11:25:39.992Z,15.54
2022-10-12T11:26:39.988Z,15.57
2022-10-12T11:27:39.980Z,15.61
2022-10-12T11:28:40.063Z,15.59
2022-10-12T11:29:39.968Z,15.65
2022-10-12T11:30:39.965Z,15.58
2022-10-12T11:31:39.957Z,15.51
2022-10-12T11:32:39.949Z,15.61
2022-10-12T11:33:39.948Z,15.59
2022-10-12T11:34:39.943Z,15.62
2022-10-12T11:35:39.932Z,15.67
2022-10-12T11:36:47.368Z,15.68
2022-10-12T11:37:39.927Z,15.68
2022-10-12T11:38:39.939Z,15.79
2022-10-12T11:39:39.914Z,15.79
2022-10-12T11:41:48.481Z,15.80
2022-10-12T11:42:43.184Z,15.80
2022-10-12T11:43:39.892Z,15.79
2022-10-12T11:44:39.887Z,15.80
2022-10-12T11:45:39.875Z,15.62
2022-10-12T11:46:39.882Z,15.54
2022-10-12T11:47:39.870Z,15.61
2022-10-12T11:48:39.857Z,15.58
2022-10-12T11:49:39.858Z,15.73
2022-10-12T11:50:39.850Z,15.70
2022-10-12T11:51:39.847Z,15.70
2022-10-12T11:52:39.837Z,15.68
2022-10-12T11:53:39.837Z,15.70
2022-10-12T11:54:39.832Z,15.61
2022-10-12T11:55:39.823Z,15.65
2022-10-12T11:56:39.820Z,15.64
2022-10-12T11:57:39.812Z,15.70
2022-10-12T11:59:00.002Z,15.68
2022-10-12T11:59:39.803Z,15.80
2022-10-12T12:00:39.796Z,15.77
2022-10-12T12:01:39.791Z,15.80
2022-10-12T12:02:39.786Z,15.95
2022-10-12T12:03:39.801Z,15.79
2022-10-12T12:04:42.541Z,15.77
2022-10-12T12:05:39.768Z,15.73
2022-10-12T12:06:39.768Z,15.65
2022-10-12T12:07:39.759Z,15.62
2022-10-12T12:08:39.751Z,15.59
2022-10-12T12:09:40.107Z,15.54
2022-10-12T12:10:39.740Z,15.68
2022-10-12T12:11:39.735Z,15.64
2022-10-12T12:12:39.758Z,15.72
2022-10-12T12:13:39.728Z,15.70
2022-10-12T12:14:40.109Z,15.72
2022-10-12T12:15:39.720Z,15.80
2022-10-12T12:16:39.706Z,15.77
2022-10-12T12:17:39.702Z,15.77
2022-10-12T12:18:39.699Z,15.77
2022-10-12T12:19:40.018Z,15.77
2022-10-12T12:20:39.687Z,15.73
2022-10-12T12:21:39.678Z,15.79
2022-10-12T12:22:39.687Z,15.75
2022-10-12T12:23:39.671Z,15.80
2022-10-12T12:24:39.761Z,15.77
2022-10-12T12:25:39.659Z,15.86
2022-10-12T12:26:39.662Z,15.91
2022-10-12T12:27:39.647Z,15.84
2022-10-12T12:28:39.666Z,16.08
2022-10-12T12:29:39.872Z,16.05
2022-10-12T12:30:39.632Z,16.04
2022-10-12T12:31:39.626Z,15.91
2022-10-12T12:32:39.623Z,15.91
2022-10-12T12:33:39.621Z,15.94
2022-10-12T12:34:39.706Z,15.90
2022-10-12T12:35:39.614Z,15.82
2022-10-12T12:36:39.601Z,15.86
2022-10-12T12:37:39.595Z,16.04
2022-10-12T12:38:39.600Z,16.13
2022-10-12T12:39:39.626Z,16.02
2022-10-12T12:40:39.584Z,16.16
2022-10-12T12:41:39.572Z,16.15
2022-10-12T12:42:39.569Z,16.21
2022-10-12T12:43:39.565Z,16.21
2022-10-12T12:44:39.558Z,16.26
2022-10-12T12:45:39.557Z,16.28
2022-10-12T12:46:39.550Z,16.32
2022-10-12T12:47:45.592Z,16.31
2022-10-12T12:48:39.541Z,16.41
2022-10-12T12:49:39.532Z,16.43
2022-10-12T12:50:39.527Z,16.33
2022-10-12T12:51:39.524Z,16.23
2022-10-12T12:52:39.518Z,16.09
2022-10-12T12:53:39.514Z,16.16
2022-10-12T12:54:39.509Z,16.13
2022-10-12T12:55:39.505Z,16.13
2022-10-12T12:56:39.545Z,16.13
2022-10-12T12:57:39.493Z,16.09
2022-10-12T12:58:39.489Z,16.20
2022-10-12T12:59:39.484Z,16.20
2022-10-12T13:00:39.588Z,16.21
2022-10-12T13:01:39.528Z,16.15
2022-10-12T13:02:39.471Z,16.04
2022-10-12T13:03:39.462Z,16.10
2022-10-12T13:04:39.456Z,16.08
2022-10-12T13:05:39.452Z,16.08
2022-10-12T13:06:39.449Z,16.00
2022-10-12T13:07:39.442Z,16.05
2022-10-12T13:08:39.434Z,16.01
2022-10-12T13:09:39.431Z,15.88
2022-10-12T13:10:39.424Z,15.88
2022-10-12T13:11:39.420Z,15.84
2022-10-12T13:12:39.414Z,15.79
2022-10-12T13:13:39.411Z,15.72